createdAt,value
2023-01-17T00:02:03.800Z,4.60
2023-01-17T00:04:49.385Z,4.60
2023-01-17T00:07:36.747Z,4.70
2023-01-17T00:10:09.097Z,4.70
2023-01-17T00:12:36.386Z,4.70
2023-01-17T00:15:04.548Z,4.60
2023-01-17T00:17:31.311Z,4.60
2023-01-17T00:20:33.852Z,4.60
2023-01-17T00:23:19.546Z,4.70
2023-01-17T00:26:04.738Z,4.70
2023-01-17T00:28:32.645Z,4.80
2023-01-17T00:30:59.731Z,4.70
2023-01-17T00:33:26.590Z,4.70
2023-01-17T00:35:54.341Z,4.80
2023-01-17T00:38:23.583Z,4.80
2023-01-17T00:40:50.513Z,4.70
2023-01-17T00:43:38.021Z,4.70
2023-01-17T00:46:24.203Z,4.60
2023-01-17T00:49:09.593Z,4.60
2023-01-17T00:51:56.345Z,4.50
2023-01-17T00:54:42.251Z,4.50
2023-01-17T00:57:27.696Z,4.50
2023-01-17T01:00:12.865Z,4.50
2023-01-17T01:02:58.625Z,4.50
2023-01-17T01:05:43.906Z,4.50
2023-01-17T01:08:42.057Z,4.50
2023-01-17T01:11:29.955Z,4.40
2023-01-17T01:14:15.541Z,4.30
2023-01-17T01:17:00.934Z,4.20
2023-01-17T01:19:46.415Z,4.10
2023-01-17T01:22:31.940Z,4.20
2023-01-17T01:25:17.149Z,4.10
2023-01-17T01:28:02.376Z,4.10
2023-01-17T01:30:47.805Z,4.00
2023-01-17T01:33:21.093Z,3.90
2023-01-17T01:35:51.010Z,3.90
2023-01-17T01:38:23.788Z,3.80
2023-01-17T01:40:53.338Z,3.90
2023-01-17T01:43:38.837Z,3.90
2023-01-17T01:46:06.885Z,3.90
2023-01-17T01:48:49.479Z,3.90
2023-01-17T01:51:25.541Z,3.90
2023-01-17T01:53:59.872Z,3.90
2023-01-17T01:56:29.171Z,3.90
2023-01-17T01:58:57.224Z,3.90
2023-01-17T02:01:24.434Z,3.90
2023-01-17T02:03:52.142Z,3.90
2023-01-17T02:06:33.901Z,4.00
2023-01-17T02:09:05.596Z,4.00
2023-01-17T02:11:33.598Z,4.00
2023-01-17T02:14:00.404Z,4.10
2023-01-17T02:16:49.290Z,4.10
2023-01-17T02:20:04.773Z,4.10
2023-01-17T02:23:04.548Z,4.20
2023-01-17T02:26:23.283Z,4.20
2023-01-17T02:28:49.956Z,4.10
2023-01-17T02:31:32.331Z,4.00
2023-01-17T02:34:32.872Z,4.10
2023-01-17T02:37:07.704Z,4.00
2023-01-17T02:39:43.279Z,4.00
2023-01-17T02:42:15.672Z,3.90
2023-01-17T02:44:44.192Z,3.90
2023-01-17T02:47:30.022Z,3.80
2023-01-17T02:50:10.501Z,3.90
2023-01-17T02:52:50.092Z,3.90
2023-01-17T02:55:59.141Z,3.90
2023-01-17T02:58:38.020Z,3.90
2023-01-17T03:04:27.996Z,4.00
2023-01-17T03:07:00.433Z,4.00
2023-01-17T03:09:29.031Z,3.90
2023-01-17T03:11:55.876Z,3.90
2023-01-17T03:14:22.657Z,3.90
2023-01-17T03:16:49.638Z,3.90
2023-01-17T03:19:16.582Z,3.90
2023-01-17T03:21:43.329Z,3.90
2023-01-17T03:24:10.198Z,3.90
2023-01-17T03:26:36.998Z,3.90
2023-01-17T03:29:03.852Z,3.90
2023-01-17T03:31:30.700Z,3.90
2023-01-17T03:33:57.541Z,3.90
2023-01-17T03:36:24.399Z,3.80
2023-01-17T03:38:51.193Z,3.90
2023-01-17T03:41:17.964Z,3.90
2023-01-17T03:43:44.838Z,3.90
2023-01-17T03:46:20.689Z,3.90
2023-01-17T03:48:47.600Z,3.80
2023-01-17T03:51:14.400Z,3.80
2023-01-17T03:53:41.287Z,3.80
2023-01-17T03:56:08.755Z,3.80
2023-01-17T03:58:35.529Z,3.80
2023-01-17T04:01:02.378Z,3.90
2023-01-17T04:03:29.257Z,3.90
2023-01-17T04:05:56.076Z,4.00
2023-01-17T04:08:22.819Z,4.00
2023-01-17T04:10:49.598Z,4.00
2023-01-17T04:13:17.043Z,4.00
2023-01-17T04:15:47.163Z,3.90
2023-01-17T04:18:14.033Z,4.00
2023-01-17T04:20:41.160Z,4.10
2023-01-17T04:23:08.049Z,4.00
2023-01-17T04:25:34.995Z,4.00
2023-01-17T04:28:03.775Z,4.10
2023-01-17T04:30:31.203Z,4.10
2023-01-17T04:32:58.467Z,4.10
2023-01-17T04:35:25.585Z,4.10
2023-01-17T04:37:52.298Z,4.10
2023-01-17T04:40:19.137Z,4.10
2023-01-17T04:42:46.131Z,4.20
2023-01-17T04:45:13.029Z,4.20
2023-01-17T04:47:40.227Z,4.20
2023-01-17T04:50:08.671Z,4.20
2023-01-17T04:52:35.363Z,4.20
2023-01-17T04:55:02.226Z,4.20
2023-01-17T04:57:28.905Z,4.20
2023-01-17T04:59:55.627Z,4.20
2023-01-17T05:02:22.546Z,4.20
2023-01-17T05:04:49.459Z,4.20
2023-01-17T05:07:16.233Z,4.20
2023-01-17T05:09:43.842Z,4.10
2023-01-17T05:12:10.819Z,4.10
2023-01-17T05:14:37.612Z,4.00
2023-01-17T05:17:04.426Z,4.10
2023-01-17T05:19:31.160Z,4.00
2023-01-17T05:22:04.217Z,4.00
2023-01-17T05:24:32.253Z,4.00
2023-01-17T05:27:03.127Z,3.90
2023-01-17T05:29:30.743Z,3.90
2023-01-17T05:31:57.979Z,3.90
2023-01-17T05:34:24.999Z,3.90
2023-01-17T05:36:51.897Z,3.90
2023-01-17T05:39:18.891Z,3.90
2023-01-17T05:41:45.860Z,3.90
2023-01-17T05:44:12.684Z,4.00
2023-01-17T05:46:39.514Z,4.00
2023-01-17T05:49:06.296Z,3.90
2023-01-17T05:51:33.740Z,3.90
2023-01-17T05:54:00.458Z,3.90
2023-01-17T05:56:27.283Z,3.80
2023-01-17T05:58:54.062Z,3.90
2023-01-17T06:01:20.861Z,3.90
2023-01-17T06:03:47.641Z,3.80
2023-01-17T06:06:14.527Z,3.80
2023-01-17T06:08:41.726Z,3.80
2023-01-17T06:11:08.441Z,3.80
2023-01-17T06:13:35.154Z,3.80
2023-01-17T06:16:03.008Z,3.80
2023-01-17T06:18:30.541Z,3.90
2023-01-17T06:20:57.408Z,3.90
2023-01-17T06:23:24.678Z,3.90
2023-01-17T06:25:51.662Z,3.90
2023-01-17T06:28:21.006Z,3.90
2023-01-17T06:30:47.876Z,3.90
2023-01-17T06:33:14.743Z,3.90
2023-01-17T06:35:48.517Z,4.00
2023-01-17T06:38:15.693Z,3.80
2023-01-17T06:40:42.418Z,3.80
2023-01-17T06:43:09.156Z,3.80
2023-01-17T06:45:36.489Z,3.90
2023-01-17T06:48:05.076Z,3.90
2023-01-17T06:50:32.623Z,3.90
2023-01-17T06:53:05.083Z,4.00
2023-01-17T06:55:33.797Z,4.00
2023-01-17T06:58:02.632Z,4.00
2023-01-17T07:00:30.777Z,4.00
2023-01-17T07:02:57.737Z,4.00
2023-01-17T07:05:24.785Z,3.90
2023-01-17T07:07:51.919Z,3.90
2023-01-17T07:10:18.677Z,3.90
2023-01-17T07:12:45.893Z,3.90
2023-01-17T07:15:12.875Z,3.90
2023-01-17T07:17:39.743Z,3.90
2023-01-17T07:20:07.129Z,3.90
2023-01-17T07:22:34.104Z,3.90
2023-01-17T07:25:01.032Z,3.90
2023-01-17T07:27:30.330Z,4.00
2023-01-17T07:29:57.999Z,3.90
2023-01-17T07:32:26.852Z,3.90
2023-01-17T07:34:54.711Z,3.90
2023-01-17T07:37:22.003Z,3.90
2023-01-17T07:39:49.331Z,3.90
2023-01-17T07:42:16.313Z,3.70
2023-01-17T07:44:45.004Z,3.60
2023-01-17T07:47:12.077Z,3.70
2023-01-17T07:49:39.053Z,3.70
2023-01-17T07:52:09.335Z,3.70
2023-01-17T07:54:36.109Z,3.60
2023-01-17T07:57:03.014Z,3.60
2023-01-17T07:59:29.931Z,3.50
2023-01-17T08:01:57.223Z,3.60
2023-01-17T08:04:27.687Z,3.60
2023-01-17T08:06:55.122Z,3.60
2023-01-17T08:09:21.954Z,3.70
2023-01-17T08:11:49.013Z,3.70
2023-01-17T08:14:15.796Z,3.60
2023-01-17T08:16:42.585Z,3.70
2023-01-17T08:19:10.249Z,3.60
2023-01-17T08:21:37.266Z,3.60
2023-01-17T08:24:04.482Z,3.60
2023-01-17T08:26:31.247Z,3.60
2023-01-17T08:29:03.026Z,3.50
2023-01-17T08:31:34.787Z,3.50
2023-01-17T08:34:01.832Z,3.50
2023-01-17T08:36:31.089Z,3.50
2023-01-17T08:38:58.798Z,3.60
2023-01-17T08:41:28.975Z,3.60
2023-01-17T08:43:58.702Z,3.40
2023-01-17T08:46:25.839Z,3.40
2023-01-17T08:48:58.771Z,3.40
2023-01-17T08:51:29.989Z,3.40
2023-01-17T08:53:57.197Z,3.30
2023-01-17T08:56:25.938Z,3.30
2023-01-17T08:58:53.152Z,3.30
2023-01-17T09:01:20.105Z,3.30
2023-01-17T09:03:49.856Z,3.40
2023-01-17T09:06:17.653Z,3.50
2023-01-17T09:08:46.966Z,3.50
2023-01-17T09:11:17.915Z,3.50
2023-01-17T09:13:44.850Z,3.40
2023-01-17T09:16:11.657Z,3.40
2023-01-17T09:18:39.569Z,3.30
2023-01-17T09:21:14.430Z,3.30
2023-01-17T09:23:41.986Z,3.50
2023-01-17T09:26:22.617Z,3.50
2023-01-17T09:28:49.485Z,3.60
2023-01-17T09:31:17.668Z,3.60
2023-01-17T09:33:44.681Z,3.60
2023-01-17T09:36:11.488Z,3.70
2023-01-17T09:38:40.079Z,3.80
2023-01-17T09:41:27.870Z,3.80
2023-01-17T09:44:25.940Z,3.80
2023-01-17T09:46:57.662Z,3.90
2023-01-17T09:49:33.606Z,3.90
2023-01-17T09:52:01.327Z,3.90
2023-01-17T09:54:34.259Z,3.80
2023-01-17T09:57:09.060Z,3.80
2023-01-17T09:59:45.731Z,3.80
2023-01-17T10:02:38.095Z,3.70
2023-01-17T10:05:28.706Z,3.70
2023-01-17T10:08:26.127Z,3.60
2023-01-17T10:11:29.732Z,3.80
2023-01-17T10:14:12.447Z,3.90
2023-01-17T10:16:58.897Z,3.90
2023-01-17T10:19:43.962Z,3.90
2023-01-17T10:22:26.856Z,4.00
2023-01-17T10:25:20.934Z,4.00
2023-01-17T10:27:59.065Z,4.00
2023-01-17T10:30:34.244Z,4.00
2023-01-17T10:33:11.669Z,4.10
2023-01-17T10:35:43.348Z,4.10
2023-01-17T10:38:12.903Z,4.10
2023-01-17T10:40:51.187Z,4.20
2023-01-17T10:43:20.249Z,4.20
2023-01-17T10:45:57.517Z,4.30
2023-01-17T10:48:45.178Z,4.20
2023-01-17T10:51:34.965Z,4.10
2023-01-17T10:54:19.376Z,4.10
2023-01-17T10:56:46.250Z,4.10
2023-01-17T10:59:18.010Z,4.10
2023-01-17T11:01:45.084Z,4.10
2023-01-17T11:04:35.020Z,4.10
2023-01-17T11:07:20.139Z,4.30
2023-01-17T11:09:50.289Z,4.50
2023-01-17T11:12:24.603Z,4.70
2023-01-17T11:15:09.707Z,5.00
2023-01-17T11:18:04.084Z,5.20
2023-01-17T11:20:37.085Z,5.50
2023-01-17T11:23:06.984Z,5.70
2023-01-17T11:25:34.912Z,5.70
2023-01-17T11:28:05.575Z,5.80
2023-01-17T11:30:32.431Z,5.80
2023-01-17T11:33:06.258Z,5.80
2023-01-17T11:35:36.609Z,5.80
2023-01-17T11:38:06.857Z,5.90
2023-01-17T11:40:43.860Z,5.90
2023-01-17T11:43:27.274Z,6.00
2023-01-17T11:46:03.126Z,6.00
2023-01-17T11:48:36.110Z,5.90
2023-01-17T11:51:04.047Z,5.90
2023-01-17T11:53:37.605Z,5.80
2023-01-17T11:56:33.317Z,5.80
2023-01-17T11:59:34.728Z,5.70
2023-01-17T12:02:32.019Z,5.40
2023-01-17T12:05:29.667Z,5.20
2023-01-17T12:08:14.429Z,5.10
2023-01-17T12:10:59.938Z,4.90
2023-01-17T12:14:00.430Z,4.80
2023-01-17T12:16:45.212Z,4.80
2023-01-17T12:19:38.934Z,4.90
2023-01-17T12:22:28.861Z,4.90
2023-01-17T12:25:14.806Z,4.90
2023-01-17T12:27:42.687Z,4.90
2023-01-17T12:30:30.851Z,4.90
2023-01-17T12:33:32.471Z,4.90
2023-01-17T12:36:05.128Z,4.90
2023-01-17T12:38:41.043Z,4.80
2023-01-17T12:41:23.470Z,4.70
2023-01-17T12:43:56.113Z,4.70
2023-01-17T12:46:38.731Z,4.60
2023-01-17T12:49:32.416Z,4.50
2023-01-17T12:52:07.175Z,4.50
2023-01-17T12:54:39.787Z,4.50
2023-01-17T12:57:15.187Z,4.40
2023-01-17T12:59:41.937Z,4.40
2023-01-17T13:02:31.592Z,4.40
2023-01-17T13:05:23.706Z,4.30
2023-01-17T13:08:02.885Z,4.20
2023-01-17T13:10:44.394Z,4.10
2023-01-17T13:13:25.977Z,4.00
2023-01-17T13:16:02.603Z,3.90
2023-01-17T13:18:29.910Z,3.90
2023-01-17T13:21:14.869Z,3.70
2023-01-17T13:24:02.979Z,3.70
2023-01-17T13:26:34.880Z,3.60
2023-01-17T13:29:24.946Z,3.50
2023-01-17T13:32:10.709Z,3.50
2023-01-17T13:35:07.715Z,3.40
2023-01-17T13:37:44.090Z,3.40
2023-01-17T13:41:02.122Z,3.30
2023-01-17T13:43:34.211Z,3.20
2023-01-17T13:46:03.379Z,3.20
2023-01-17T13:48:37.647Z,3.10
2023-01-17T13:51:06.476Z,3.10
2023-01-17T13:53:36.924Z,3.00
2023-01-17T13:56:22.709Z,3.00
2023-01-17T13:58:54.628Z,2.90
2023-01-17T14:01:24.468Z,2.90
2023-01-17T14:03:51.558Z,2.90
2023-01-17T14:06:35.508Z,2.80
2023-01-17T14:09:08.081Z,2.80
2023-01-17T14:11:36.767Z,2.80
2023-01-17T14:14:35.754Z,2.80
2023-01-17T14:17:25.570Z,2.80
2023-01-17T14:19:57.159Z,2.80
2023-01-17T14:22:31.417Z,2.80
2023-01-17T14:25:01.220Z,2.80
2023-01-17T14:27:31.848Z,2.80
2023-01-17T14:30:00.385Z,2.80
2023-01-17T14:32:31.535Z,2.80
2023-01-17T14:34:58.657Z,2.70
2023-01-17T14:37:36.834Z,2.70
2023-01-17T14:40:15.814Z,2.70
2023-01-17T14:42:43.199Z,2.60
2023-01-17T14:45:15.943Z,2.60
2023-01-17T14:47:44.773Z,2.60
2023-01-17T14:50:20.443Z,2.60
2023-01-17T14:52:47.767Z,2.50
2023-01-17T14:55:19.947Z,2.50
2023-01-17T14:57:54.785Z,2.50
2023-01-17T15:00:23.333Z,2.60
2023-01-17T15:02:52.126Z,2.50
2023-01-17T15:05:24.805Z,2.40
2023-01-17T15:07:53.779Z,2.40
2023-01-17T15:10:27.129Z,2.50
2023-01-17T15:12:57.413Z,2.50
2023-01-17T15:15:27.377Z,2.50
2023-01-17T15:18:09.320Z,2.60
2023-01-17T15:20:37.734Z,2.60
2023-01-17T15:23:06.030Z,2.60
2023-01-17T15:25:33.637Z,2.60
2023-01-17T15:28:00.524Z,2.60
2023-01-17T15:30:27.302Z,2.60
2023-01-17T15:32:54.172Z,2.60
2023-01-17T15:35:21.376Z,2.60
2023-01-17T15:37:54.080Z,2.60
2023-01-17T15:40:23.310Z,2.60
2023-01-17T15:42:57.441Z,2.50
2023-01-17T15:45:31.263Z,2.50
2023-01-17T15:47:59.320Z,2.50
2023-01-17T15:50:30.546Z,2.50
2023-01-17T15:53:04.946Z,2.50
2023-01-17T15:55:37.263Z,2.40
2023-01-17T15:58:05.732Z,2.40
2023-01-17T16:00:40.503Z,2.30
2023-01-17T16:03:27.036Z,2.30
2023-01-17T16:05:57.600Z,2.20
2023-01-17T16:08:39.586Z,2.20
2023-01-17T16:11:08.323Z,2.10
2023-01-17T16:13:43.254Z,2.00
2023-01-17T16:16:11.986Z,2.00
2023-01-17T16:18:40.287Z,1.90
2023-01-17T16:21:21.815Z,1.90
2023-01-17T16:23:48.666Z,1.80
2023-01-17T16:26:15.733Z,1.70
2023-01-17T16:28:42.616Z,1.70
2023-01-17T16:31:09.444Z,1.60
2023-01-17T16:33:36.190Z,1.50
2023-01-17T16:36:03.199Z,1.50
2023-01-17T16:38:30.416Z,1.50
2023-01-17T16:40:57.173Z,1.50
2023-01-17T16:43:23.943Z,1.40
2023-01-17T16:45:53.115Z,1.40
2023-01-17T16:48:20.750Z,1.30
2023-01-17T16:50:52.105Z,1.30
2023-01-17T16:53:25.283Z,1.20
2023-01-17T16:55:55.488Z,1.10
2023-01-17T16:58:22.926Z,1.00
2023-01-17T17:00:49.728Z,1.10
2023-01-17T17:03:18.038Z,1.00
2023-01-17T17:05:47.181Z,1.00
2023-01-17T17:08:15.412Z,1.00
2023-01-17T17:10:42.180Z,0.90
2023-01-17T17:13:08.942Z,0.90
2023-01-17T17:15:40.313Z,0.90
2023-01-17T17:18:07.004Z,0.80
2023-01-17T17:20:33.705Z,0.80
2023-01-17T17:23:00.412Z,0.80
2023-01-17T17:25:27.139Z,0.80
2023-01-17T17:27:54.148Z,0.80
2023-01-17T17:30:20.968Z,0.80
2023-01-17T17:32:47.752Z,0.70
2023-01-17T17:35:14.559Z,0.70
2023-01-17T17:37:43.491Z,0.70
2023-01-17T17:40:10.968Z,0.70
2023-01-17T17:42:37.723Z,0.70
2023-01-17T17:45:04.900Z,0.60
2023-01-17T17:47:31.681Z,0.70
2023-01-17T17:49:58.422Z,0.60
2023-01-17T17:52:25.661Z,0.60
2023-01-17T17:54:52.586Z,0.60
2023-01-17T17:57:19.479Z,0.50
2023-01-17T17:59:46.203Z,0.50
2023-01-17T18:02:13.020Z,0.50
2023-01-17T18:04:39.866Z,0.50
2023-01-17T18:07:06.772Z,0.50
2023-01-17T18:09:33.456Z,0.50
2023-01-17T18:12:00.358Z,0.50
2023-01-17T18:14:27.141Z,0.50
2023-01-17T18:16:53.856Z,0.50
2023-01-17T18:19:24.694Z,0.50
2023-01-17T18:21:52.178Z,0.50
2023-01-17T18:24:21.624Z,0.50
2023-01-17T18:26:50.554Z,0.50
2023-01-17T18:29:19.562Z,0.50
2023-01-17T18:31:47.155Z,0.50
2023-01-17T18:34:16.324Z,0.50
2023-01-17T18:36:43.739Z,0.50
2023-01-17T18:39:16.449Z,0.50
2023-01-17T18:41:43.771Z,0.50
2023-01-17T18:44:11.253Z,0.50
2023-01-17T18:46:40.047Z,0.50
2023-01-17T18:49:07.043Z,0.50
2023-01-17T18:51:34.822Z,0.50
2023-01-17T18:54:05.923Z,0.50
2023-01-17T18:56:36.617Z,0.60
2023-01-17T18:59:07.252Z,0.60
2023-01-17T19:01:36.826Z,0.60
2023-01-17T19:04:05.584Z,0.60
2023-01-17T19:06:38.512Z,0.60
2023-01-17T19:09:07.540Z,0.50
2023-01-17T19:11:36.357Z,0.50
2023-01-17T19:14:04.080Z,0.50
2023-01-17T19:16:34.671Z,0.50
2023-01-17T19:19:07.553Z,0.50
2023-01-17T19:21:34.662Z,0.50
2023-01-17T19:24:01.845Z,0.50
2023-01-17T19:26:28.796Z,0.50
2023-01-17T19:28:57.597Z,0.50
2023-01-17T19:31:29.779Z,0.40
2023-01-17T19:33:58.190Z,0.40
2023-01-17T19:36:33.749Z,0.50
2023-01-17T19:39:05.903Z,0.50
2023-01-17T19:41:35.599Z,0.50
2023-01-17T19:44:07.922Z,0.50
2023-01-17T19:46:35.897Z,0.50
2023-01-17T19:49:04.164Z,0.50
2023-01-17T19:51:31.499Z,0.50
2023-01-17T19:54:01.886Z,0.50
2023-01-17T19:56:29.954Z,0.50
2023-01-17T19:59:00.896Z,0.50
2023-01-17T20:01:30.263Z,0.50
2023-01-17T20:03:58.584Z,0.50
2023-01-17T20:06:31.885Z,0.50
2023-01-17T20:08:58.687Z,0.50
2023-01-17T20:11:26.819Z,0.50
2023-01-17T20:13:55.956Z,0.50
2023-01-17T20:16:24.388Z,0.40
2023-01-17T20:18:51.180Z,0.50
2023-01-17T20:21:20.921Z,0.40
2023-01-17T20:23:48.713Z,0.40
2023-01-17T20:26:18.122Z,0.40
2023-01-17T20:28:47.069Z,0.40
2023-01-17T20:31:17.758Z,0.40
2023-01-17T20:33:46.871Z,0.30
2023-01-17T20:36:15.509Z,0.30
2023-01-17T20:38:46.209Z,0.30
2023-01-17T20:41:19.152Z,0.20
2023-01-17T20:43:46.860Z,0.20
2023-01-17T20:46:14.574Z,0.20
2023-01-17T20:48:53.054Z,0.20
2023-01-17T20:51:20.869Z,0.10
2023-01-17T20:53:52.135Z,0.10
2023-01-17T20:56:19.592Z,0.10
2023-01-17T20:58:46.561Z,0.00
2023-01-17T21:01:19.649Z,0.10
2023-01-17T21:03:49.263Z,0.10
2023-01-17T21:06:16.074Z,0.10
2023-01-17T21:08:44.873Z,0.10
2023-01-17T21:11:15.189Z,0.10
2023-01-17T21:13:42.648Z,0.10
2023-01-17T21:16:12.695Z,0.10
2023-01-17T21:18:39.826Z,0.10
2023-01-17T21:21:13.445Z,0.10
2023-01-17T21:23:41.806Z,0.20
2023-01-17T21:26:12.092Z,0.20
2023-01-17T21:28:42.755Z,0.20
2023-01-17T21:31:19.502Z,0.20
2023-01-17T21:33:47.477Z,0.20
2023-01-17T21:36:14.343Z,0.20
2023-01-17T21:38:41.099Z,0.20
2023-01-17T21:41:07.877Z,0.20
2023-01-17T21:43:34.591Z,0.20
2023-01-17T21:46:03.373Z,0.30
2023-01-17T21:48:31.036Z,0.30
2023-01-17T21:51:04.492Z,0.20
2023-01-17T21:53:33.132Z,0.20
2023-01-17T21:56:23.421Z,0.20
2023-01-17T21:58:56.962Z,0.20
2023-01-17T22:01:33.502Z,0.20
2023-01-17T22:04:02.907Z,0.20
2023-01-17T22:06:39.294Z,0.20
2023-01-17T22:09:06.223Z,0.20
2023-01-17T22:11:35.351Z,0.20
2023-01-17T22:14:04.403Z,0.20
2023-01-17T22:16:31.903Z,0.30
2023-01-17T22:18:59.136Z,0.30
2023-01-17T22:21:28.299Z,0.20
2023-01-17T22:23:59.381Z,0.20
2023-01-17T22:26:28.913Z,0.20
2023-01-17T22:28:59.128Z,0.20
2023-01-17T22:31:27.401Z,0.20
2023-01-17T22:33:59.439Z,0.20
2023-01-17T22:36:26.941Z,0.20
2023-01-17T22:38:53.737Z,0.20
2023-01-17T22:41:23.234Z,0.20
2023-01-17T22:43:53.387Z,0.20
2023-01-17T22:46:25.477Z,0.20
2023-01-17T22:48:54.212Z,0.20
2023-01-17T22:51:23.322Z,0.30
2023-01-17T22:53:54.445Z,0.30
2023-01-17T22:56:29.507Z,0.30
2023-01-17T22:58:57.497Z,0.20
2023-01-17T23:01:33.295Z,0.20
2023-01-17T23:04:02.237Z,0.30
2023-01-17T23:06:37.392Z,0.20
2023-01-17T23:09:07.853Z,0.20
2023-01-17T23:11:43.793Z,0.20
2023-01-17T23:14:12.669Z,0.20
2023-01-17T23:17:05.478Z,0.10
2023-01-17T23:19:35.733Z,0.20
2023-01-17T23:22:17.343Z,0.20
2023-01-17T23:24:45.562Z,0.20
2023-01-17T23:27:32.796Z,0.20
2023-01-17T23:29:59.655Z,0.10
2023-01-17T23:32:27.542Z,0.10
2023-01-17T23:34:54.685Z,0.10
2023-01-17T23:37:21.514Z,0.10
2023-01-17T23:39:48.257Z,0.10
2023-01-17T23:42:34.112Z,0.10
2023-01-17T23:45:00.885Z,0.10
2023-01-17T23:47:27.528Z,0.20
2023-01-17T23:49:54.232Z,0.10
2023-01-17T23:52:20.942Z,0.10
2023-01-17T23:54:48.486Z,0.20
2023-01-17T23:57:15.280Z,0.10
2023-01-17T23:59:41.953Z,0.10
